Time;durP1;ratioP1;P1;durP2;ratioP2;P2;SDS_P1;SDS_P2;PMS_P1;PMS_P2;Temp;Humidity;BMP_temperature;BMP_pressure;BME280_temperature;BME280_humidity;BME280_pressure;Samples;Min_cycle;Max_cycle;Signal;HPM_P1;HPM_P2
2022/05/29 00:00:54;;;;;;;;;;;;;;;11.36;100.00;99788.97;5058702;28;19925;-85
2022/05/29 00:03:21;;;;;;;;;;;;;;;11.69;100.00;99776.34;5075162;28;19931;-85
2022/05/29 00:05:49;;;;;;;;;;;;;;;11.99;100.00;99782.88;5058552;28;19974;-85
2022/05/29 00:08:27;;;;;;;;;;;;;;;12.05;100.00;99792.41;5058566;28;19932;-85
2022/05/29 00:10:54;;;;;;;;;;;;;;;11.59;100.00;99780.81;5058900;28;19931;-85
2022/05/29 00:13:22;;;;;;;;;;;;;;;11.05;100.00;99783.63;5041961;28;19931;-85
2022/05/29 00:15:49;;;;;;;;;;;;;;;10.86;100.00;99785.72;5091902;28;19924;-85
2022/05/29 00:18:16;;;;;;;;;;;;;;;10.89;100.00;99793.31;5075105;28;19934;-85
2022/05/29 00:20:49;;;;;;;;;;;;;;;11.44;100.00;99782.13;5074574;28;19961;-85
2022/05/29 00:23:17;;;;;;;;;;;;;;;11.57;100.00;99783.22;5074840;28;19960;-85
2022/05/29 00:25:45;;;;;;;;;;;;;;;11.66;100.00;99789.16;5074877;28;20387;-85
2022/05/29 00:28:12;;;;;;;;;;;;;;;11.52;100.00;99783.66;5074543;28;20408;-86
2022/05/29 00:30:40;;;;;;;;;;;;;;;11.55;100.00;99780.06;5058045;28;20368;-85
2022/05/29 00:33:08;;;;;;;;;;;;;;;11.71;100.00;99782.31;5076245;28;20022;-85
2022/05/29 00:35:37;;;;;;;;;;;;;;;11.72;100.00;99775.53;5074568;28;19993;-85
2022/05/29 00:38:05;;;;;;;;;;;;;;;11.73;100.00;99780.72;5074649;28;19928;-85
2022/05/29 00:40:41;;;;;;;;;;;;;;;11.81;100.00;99771.03;5074542;28;19924;-85
2022/05/29 00:43:08;;;;;;;;;;;;;;;11.34;100.00;99774.63;5057984;28;19925;-85
2022/05/29 00:46:06;;;;;;;;;;;;;;;11.67;100.00;99770.38;5057852;28;19924;-85
2022/05/29 00:48:33;;;;;;;;;;;;;;;11.71;100.00;99766.31;5066325;28;20372;-85
2022/05/29 00:51:03;;;;;;;;;;;;;;;11.84;100.00;99769.41;5041372;28;19974;-85
2022/05/29 00:53:33;;;;;;;;;;;;;;;12.09;100.00;99765.13;5041296;28;19925;-85
2022/05/29 00:56:06;;;;;;;;;;;;;;;12.15;100.00;99766.28;5057657;28;20354;-85
2022/05/29 00:58:34;;;;;;;;;;;;;;;11.96;100.00;99768.88;5074239;28;19924;-85
2022/05/29 01:01:02;;;;;;;;;;;;;;;12.21;100.00;99753.41;5057323;28;19924;-85
2022/05/29 01:03:30;;;;;;;;;;;;;;;12.25;100.00;99751.34;5075098;28;19924;-85
2022/05/29 01:06:48;;;;;;;;;;;;;;;11.84;100.00;99753.41;5092337;28;19916;-85
2022/05/29 01:09:16;;;;;;;;;;;;;;;11.66;100.00;99752.00;5089965;28;19925;-85
2022/05/29 01:12:01;;;;;;;;;;;;;;;12.02;100.00;99751.22;5091319;28;19924;-85
2022/05/29 01:14:36;;;;;;;;;;;;;;;12.29;100.00;99749.31;5090204;28;19928;-85
2022/05/29 01:17:03;;;;;;;;;;;;;;;12.22;100.00;99740.97;5107016;28;19930;-85
2022/05/29 01:19:30;;;;;;;;;;;;;;;11.58;100.00;99733.63;5090298;28;19924;-84
2022/05/29 01:22:10;;;;;;;;;;;;;;;11.18;100.00;99732.38;5089996;28;19924;-85
2022/05/29 01:24:56;;;;;;;;;;;;;;;11.05;100.00;99734.09;5106840;28;19924;-85
2022/05/29 01:27:38;;;;;;;;;;;;;;;10.85;100.00;99730.22;5073429;28;19966;-85
2022/05/29 01:30:17;;;;;;;;;;;;;;;11.22;100.00;99724.78;5123673;28;19924;-85
2022/05/29 01:33:11;;;;;;;;;;;;;;;10.64;100.00;99730.34;5123913;28;19931;-85
2022/05/29 01:35:58;;;;;;;;;;;;;;;10.88;100.00;99729.41;5071387;28;19924;-85
2022/05/29 01:38:37;;;;;;;;;;;;;;;11.40;100.00;99719.81;5049579;28;19924;-85
2022/05/29 01:41:10;;;;;;;;;;;;;;;11.40;100.00;99722.63;5072719;28;20470;-85
2022/05/29 01:43:37;;;;;;;;;;;;;;;11.63;100.00;99731.19;5123185;28;19974;-85
2022/05/29 01:46:11;;;;;;;;;;;;;;;11.38;100.00;99713.81;5089867;28;19925;-85
2022/05/29 01:48:58;;;;;;;;;;;;;;;11.94;100.00;99712.47;5106701;28;19924;-85
2022/05/29 01:51:34;;;;;;;;;;;;;;;12.20;100.00;99718.19;5073106;28;20062;-85
2022/05/29 01:54:22;;;;;;;;;;;;;;;12.41;100.00;99715.13;5089447;28;19924;-85
2022/05/29 01:56:52;;;;;;;;;;;;;;;12.54;100.00;99713.34;5123072;28;19928;-85
2022/05/29 01:59:23;;;;;;;;;;;;;;;12.60;100.00;99703.22;5106056;28;20123;-86
2022/05/29 02:01:55;;;;;;;;;;;;;;;12.68;100.00;99712.34;5089302;28;20065;-85
2022/05/29 02:04:23;;;;;;;;;;;;;;;12.57;100.00;99711.72;5089033;28;20291;-85
2022/05/29 02:09:44;;;;;;;;;;;;;;;12.65;100.00;99701.97;5089209;28;19934;-85
2022/05/29 02:12:15;;;;;;;;;;;;;;;12.72;100.00;99702.66;5122989;28;19924;-86
2022/05/29 02:14:47;;;;;;;;;;;;;;;12.78;100.00;99692.56;5072158;28;19947;-85
2022/05/29 02:17:16;;;;;;;;;;;;;;;12.80;100.00;99691.34;5080254;28;19925;-85
2022/05/29 02:19:48;;;;;;;;;;;;;;;12.86;100.00;99695.28;5075419;28;19932;-85
2022/05/29 02:22:18;;;;;;;;;;;;;;;12.77;100.00;99690.16;5092616;28;20019;-85
2022/05/29 02:24:49;;;;;;;;;;;;;;;12.71;100.00;99691.88;5075424;28;19970;-85
2022/05/29 02:27:30;;;;;;;;;;;;;;;12.54;100.00;99685.28;5108724;28;19924;-85
2022/05/29 02:29:58;;;;;;;;;;;;;;;11.87;100.00;99678.97;5075233;28;19924;-85
2022/05/29 02:32:25;;;;;;;;;;;;;;;11.78;100.00;99676.69;5076213;28;19932;-85
2022/05/29 02:34:55;;;;;;;;;;;;;;;11.95;100.00;99692.47;5075227;28;19978;-85
2022/05/29 02:37:35;;;;;;;;;;;;;;;12.23;100.00;99686.53;5075247;28;19967;-88
2022/05/29 02:40:18;;;;;;;;;;;;;;;12.33;100.00;99680.00;5042075;28;19978;-88
2022/05/29 02:43:06;;;;;;;;;;;;;;;12.33;100.00;99680.00;5091593;28;19925;-88
2022/05/29 02:45:43;;;;;;;;;;;;;;;11.77;100.00;99675.06;5075179;28;19924;-87
2022/05/29 02:48:25;;;;;;;;;;;;;;;10.66;100.00;99672.06;5074974;28;19928;-87
2022/05/29 02:50:58;;;;;;;;;;;;;;;10.81;100.00;99679.91;5041590;28;19931;-86
2022/05/29 02:53:25;;;;;;;;;;;;;;;11.11;100.00;99676.50;5108779;28;19925;-87
2022/05/29 02:55:53;;;;;;;;;;;;;;;10.59;100.00;99672.91;5041348;28;19924;-86
2022/05/29 02:58:23;;;;;;;;;;;;;;;10.17;100.00;99673.16;5074736;28;20576;-85
2022/05/29 03:00:56;;;;;;;;;;;;;;;10.63;100.00;99670.09;5075060;28;20303;-86
2022/05/29 03:03:31;;;;;;;;;;;;;;;11.17;100.00;99665.66;5074570;28;19925;-86
2022/05/29 03:06:20;;;;;;;;;;;;;;;10.67;100.00;99673.66;5091072;28;19962;-85
2022/05/29 03:08:53;;;;;;;;;;;;;;;11.32;100.00;99667.91;5108013;28;19924;-86
2022/05/29 03:11:36;;;;;;;;;;;;;;;11.48;100.00;99656.97;5075325;28;19935;-86
2022/05/29 03:14:10;;;;;;;;;;;;;;;11.92;100.00;99664.53;5074162;28;20303;-85
2022/05/29 03:17:06;;;;;;;;;;;;;;;11.88;100.00;99647.75;5058035;28;20531;-87
2022/05/29 03:19:50;;;;;;;;;;;;;;;11.99;100.00;99645.63;5075783;28;19931;-85
2022/05/29 03:22:27;;;;;;;;;;;;;;;11.70;100.00;99644.38;5107669;28;19924;-86
2022/05/29 03:25:11;;;;;;;;;;;;;;;11.40;100.00;99644.28;5057715;28;19931;-85
2022/05/29 03:27:43;;;;;;;;;;;;;;;11.54;100.00;99641.31;5075464;28;19924;-86
2022/05/29 03:30:28;;;;;;;;;;;;;;;11.54;100.00;99634.94;5073540;28;19928;-85
2022/05/29 03:32:57;;;;;;;;;;;;;;;11.62;100.00;99634.47;5074177;28;20350;-85
2022/05/29 03:35:35;;;;;;;;;;;;;;;11.94;100.00;99639.69;5057031;28;19931;-86
2022/05/29 03:38:03;;;;;;;;;;;;;;;11.92;100.00;99640.09;5075118;28;20294;-85
2022/05/29 03:40:32;;;;;;;;;;;;;;;12.13;100.00;99642.63;5057253;28;20399;-85
2022/05/29 03:43:00;;;;;;;;;;;;;;;12.29;100.00;99634.41;5090587;28;19924;-85
2022/05/29 03:45:27;;;;;;;;;;;;;;;12.18;100.00;99638.56;5090345;28;19925;-85
2022/05/29 03:47:55;;;;;;;;;;;;;;;12.17;100.00;99625.78;5090688;28;20015;-85
2022/05/29 03:50:23;;;;;;;;;;;;;;;12.28;100.00;99627.22;5057016;28;19970;-85
2022/05/29 03:52:50;;;;;;;;;;;;;;;12.04;100.00;99627.56;5057006;28;19928;-85
2022/05/29 03:55:22;;;;;;;;;;;;;;;12.18;100.00;99625.34;5057128;28;19924;-85
2022/05/29 03:57:50;;;;;;;;;;;;;;;12.30;100.00;99624.78;5073670;28;20398;-85
2022/05/29 04:00:18;;;;;;;;;;;;;;;12.16;100.00;99619.38;5106990;28;19924;-85
2022/05/29 04:02:46;;;;;;;;;;;;;;;12.29;100.00;99620.41;5107669;28;20364;-85
2022/05/29 04:05:15;;;;;;;;;;;;;;;12.05;100.00;99618.75;5073227;28;19931;-85
2022/05/29 04:13:15;;;;;;;;;;;;;;;12.53;100.00;99615.66;5073165;28;19924;-85
2022/05/29 04:15:45;;;;;;;;;;;;;;;12.50;100.00;99608.88;5073536;28;19924;-85
2022/05/29 04:18:14;;;;;;;;;;;;;;;12.62;100.00;99615.91;5074424;28;19931;-85
2022/05/29 04:20:41;;;;;;;;;;;;;;;12.52;100.00;99614.06;5090187;28;20330;-85
2022/05/29 04:23:09;;;;;;;;;;;;;;;12.43;100.00;99603.38;5072989;28;20388;-85
2022/05/29 04:25:36;;;;;;;;;;;;;;;12.57;100.00;99610.78;5056507;28;19935;-85
2022/05/29 04:28:03;;;;;;;;;;;;;;;12.59;100.00;99609.16;5072915;28;20015;-85
2022/05/29 04:30:30;;;;;;;;;;;;;;;12.61;100.00;99603.91;5073110;28;20311;-85
2022/05/29 04:33:00;;;;;;;;;;;;;;;12.44;100.00;99604.16;5072751;28;20280;-85
2022/05/29 04:35:35;;;;;;;;;;;;;;;12.51;100.00;99595.69;5072744;28;19932;-85
2022/05/29 04:38:02;;;;;;;;;;;;;;;12.37;100.00;99599.47;5072997;28;19932;-85
2022/05/29 04:40:32;;;;;;;;;;;;;;;12.35;100.00;99585.09;5089136;28;19925;-84
2022/05/29 04:42:59;;;;;;;;;;;;;;;12.45;100.00;99592.53;5072761;28;20022;-85
2022/05/29 04:45:27;;;;;;;;;;;;;;;12.33;100.00;99584.72;5106144;28;20021;-86
2022/05/29 04:47:57;;;;;;;;;;;;;;;12.32;100.00;99588.75;5072916;28;20265;-85
2022/05/29 04:50:39;;;;;;;;;;;;;;;12.41;100.00;99589.00;5102002;28;19925;-85
2022/05/29 04:53:07;;;;;;;;;;;;;;;12.59;100.00;99592.31;5089302;28;19924;-85
2022/05/29 04:55:34;;;;;;;;;;;;;;;12.51;100.00;99590.84;5072521;28;19925;-85
2022/05/29 04:58:01;;;;;;;;;;;;;;;12.33;100.00;99590.31;5056202;28;19928;-85
2022/05/29 05:00:28;;;;;;;;;;;;;;;12.43;100.00;99597.75;5089295;28;20394;-85
2022/05/29 05:02:55;;;;;;;;;;;;;;;12.33;100.00;99593.13;5089711;28;20363;-85
2022/05/29 05:05:23;;;;;;;;;;;;;;;12.22;100.00;99589.66;5073511;28;19925;-85
2022/05/29 05:07:50;;;;;;;;;;;;;;;12.20;100.00;99594.91;5089563;28;19932;-86
2022/05/29 05:10:17;;;;;;;;;;;;;;;12.41;100.00;99591.81;5089059;28;19925;-86
2022/05/29 05:12:45;;;;;;;;;;;;;;;12.46;100.00;99594.13;5089145;28;19952;-84
2022/05/29 05:15:14;;;;;;;;;;;;;;;11.96;100.00;99587.66;5073703;28;19929;-84
2022/05/29 05:17:42;;;;;;;;;;;;;;;12.25;100.00;99577.63;5089776;28;19928;-84
2022/05/29 05:20:09;;;;;;;;;;;;;;;12.41;100.00;99575.00;5072325;28;19931;-85
2022/05/29 05:22:36;;;;;;;;;;;;;;;12.74;100.00;99570.44;5072349;28;19924;-79
2022/05/29 05:25:04;;;;;;;;;;;;;;;12.86;100.00;99571.88;5105962;28;20395;-80
2022/05/29 05:27:32;;;;;;;;;;;;;;;12.67;100.00;99560.16;5072561;28;19947;-80
2022/05/29 05:29:59;;;;;;;;;;;;;;;12.64;100.00;99575.03;5072431;28;20023;-80
2022/05/29 05:32:27;;;;;;;;;;;;;;;12.57;100.00;99582.75;5073620;28;19987;-80
2022/05/29 05:34:54;;;;;;;;;;;;;;;12.58;100.00;99587.16;5055834;28;19940;-80
2022/05/29 05:37:21;;;;;;;;;;;;;;;12.81;100.00;99597.59;5073458;28;20001;-80
2022/05/29 05:39:50;;;;;;;;;;;;;;;12.67;100.00;99587.41;5073483;28;19924;-80
2022/05/29 05:42:18;;;;;;;;;;;;;;;12.82;100.00;99585.94;5073798;28;19928;-79
2022/05/29 05:44:46;;;;;;;;;;;;;;;12.85;100.00;99582.28;5072384;28;19932;-80
2022/05/29 05:47:14;;;;;;;;;;;;;;;12.88;100.00;99586.25;5072189;28;19931;-79
2022/05/29 05:49:41;;;;;;;;;;;;;;;12.82;100.00;99579.53;5072136;28;19982;-80
2022/05/29 05:52:09;;;;;;;;;;;;;;;12.90;100.00;99572.59;5075140;28;19925;-79
2022/05/29 05:54:36;;;;;;;;;;;;;;;12.78;100.00;99571.97;5075717;28;20284;-79
2022/05/29 05:57:06;;;;;;;;;;;;;;;12.74;100.00;99576.06;5075821;28;20011;-79
2022/05/29 05:59:34;;;;;;;;;;;;;;;12.90;100.00;99583.81;5058718;28;19931;-80
2022/05/29 06:02:01;;;;;;;;;;;;;;;13.09;100.00;99574.69;5077202;28;19928;-80
2022/05/29 06:04:28;;;;;;;;;;;;;;;13.01;100.00;99576.03;5076855;28;20390;-80
2022/05/29 06:06:55;;;;;;;;;;;;;;;12.99;100.00;99575.63;5075586;28;19950;-80
2022/05/29 06:09:23;;;;;;;;;;;;;;;13.10;100.00;99570.66;5076082;28;19924;-79
2022/05/29 06:11:51;;;;;;;;;;;;;;;13.33;100.00;99573.47;5076737;28;19931;-77
2022/05/29 06:14:18;;;;;;;;;;;;;;;13.05;100.00;99576.75;5076705;28;19925;-84
2022/05/29 06:16:45;;;;;;;;;;;;;;;13.13;100.00;99564.19;5059470;28;19971;-82
2022/05/29 06:19:12;;;;;;;;;;;;;;;13.20;100.00;99570.47;5075891;28;19931;-80
2022/05/29 06:21:39;;;;;;;;;;;;;;;13.34;100.00;99570.22;5076828;28;19962;-81
2022/05/29 06:24:07;;;;;;;;;;;;;;;13.29;100.00;99561.47;5075661;28;19931;-81
2022/05/29 06:26:34;;;;;;;;;;;;;;;13.22;100.00;99567.25;5059006;28;19924;-81
2022/05/29 06:29:01;;;;;;;;;;;;;;;13.48;100.00;99566.34;5076921;28;19925;-80
2022/05/29 06:31:28;;;;;;;;;;;;;;;13.77;100.00;99564.53;5042194;28;19925;-80
2022/05/29 06:33:55;;;;;;;;;;;;;;;13.88;100.00;99559.47;5072219;28;19925;-84
2022/05/29 06:36:23;;;;;;;;;;;;;;;13.96;100.00;99560.91;5055858;28;19974;-82
2022/05/29 06:38:52;;;;;;;;;;;;;;;13.86;100.00;99561.91;5055331;28;19928;-82
2022/05/29 06:41:21;;;;;;;;;;;;;;;13.66;100.00;99563.97;5072794;28;20022;-81
2022/05/29 06:43:52;;;;;;;;;;;;;;;13.78;100.00;99571.75;5055780;28;19958;-82
2022/05/29 06:46:20;;;;;;;;;;;;;;;13.61;100.00;99556.84;5073500;28;20375;-80
2022/05/29 06:48:48;;;;;;;;;;;;;;;13.58;100.00;99560.50;5074257;28;19970;-82
2022/05/29 06:51:17;;;;;;;;;;;;;;;13.60;100.00;99560.84;5072230;28;20011;-81
2022/05/29 06:53:45;;;;;;;;;;;;;;;13.96;100.00;99561.72;5072621;28;19930;-82
2022/05/29 06:56:12;;;;;;;;;;;;;;;14.16;100.00;99558.88;5073547;28;19929;-81
2022/05/29 06:58:40;;;;;;;;;;;;;;;14.21;100.00;99561.94;5073761;28;19932;-81
2022/05/29 07:07:01;;;;;;;;;;;;;;;13.99;100.00;99562.84;5073163;28;19925;-81
2022/05/29 07:09:30;;;;;;;;;;;;;;;14.13;100.00;99565.38;5072193;28;19978;-81
2022/05/29 07:12:00;;;;;;;;;;;;;;;13.94;100.00;99574.59;5073475;28;19935;-81
2022/05/29 07:14:28;;;;;;;;;;;;;;;13.86;100.00;99573.16;5055012;28;20292;-81
2022/05/29 07:16:56;;;;;;;;;;;;;;;13.67;100.00;99571.16;5073271;28;20309;-81
2022/05/29 07:19:25;;;;;;;;;;;;;;;13.65;100.00;99568.78;5071456;28;19930;-82
2022/05/29 07:21:54;;;;;;;;;;;;;;;13.52;100.00;99558.63;5071916;28;19925;-82
2022/05/29 07:24:21;;;;;;;;;;;;;;;13.63;100.00;99548.75;5071682;28;19991;-82
2022/05/29 07:26:48;;;;;;;;;;;;;;;13.82;100.00;99555.59;5072736;28;19924;-81
2022/05/29 07:29:17;;;;;;;;;;;;;;;13.55;100.00;99563.38;5072989;28;19925;-82
2022/05/29 07:31:45;;;;;;;;;;;;;;;13.77;100.00;99553.28;5071502;28;19932;-80
2022/05/29 07:34:13;;;;;;;;;;;;;;;14.36;100.00;99551.19;5054661;28;20334;-82
2022/05/29 07:36:40;;;;;;;;;;;;;;;14.89;100.00;99549.91;5069264;28;19932;-83
2022/05/29 07:39:09;;;;;;;;;;;;;;;15.25;100.00;99545.69;5055834;28;20023;-81
2022/05/29 07:44:23;;;;;;;;;;;;;;;15.01;100.00;99541.50;5073723;28;20402;-83
2022/05/29 07:46:49;;;;;;;;;;;;;;;15.72;100.00;99535.53;5107372;28;19978;-85
2022/05/29 07:49:17;;;;;;;;;;;;;;;15.63;100.00;99537.44;5073678;28;19928;-84
2022/05/29 07:51:44;;;;;;;;;;;;;;;15.60;100.00;99527.84;5073588;28;20017;-84
2022/05/29 07:54:11;;;;;;;;;;;;;;;15.66;100.00;99531.69;5057438;28;19932;-84
2022/05/29 07:56:38;;;;;;;;;;;;;;;15.73;100.00;99537.13;5073599;28;19930;-84
2022/05/29 07:59:05;;;;;;;;;;;;;;;15.36;100.00;99522.88;5074605;28;19931;-83
2022/05/29 08:01:32;;;;;;;;;;;;;;;15.63;100.00;99538.22;5073500;28;19929;-84
2022/05/29 08:03:59;;;;;;;;;;;;;;;17.37;100.00;99524.47;5074497;28;19970;-83
2022/05/29 08:06:26;;;;;;;;;;;;;;;17.53;100.00;99515.06;5074354;28;19932;-84
2022/05/29 08:08:53;;;;;;;;;;;;;;;17.23;100.00;99519.34;5056657;28;19931;-83
2022/05/29 08:11:20;;;;;;;;;;;;;;;17.07;100.00;99518.75;5074737;28;19924;-83
2022/05/29 08:13:48;;;;;;;;;;;;;;;16.74;100.00;99517.44;5074287;28;19931;-84
2022/05/29 08:16:46;;;;;;;;;;;;;;;16.44;100.00;99518.03;5091799;28;19912;-83
2022/05/29 08:19:14;;;;;;;;;;;;;;;16.76;100.00;99512.13;5090103;28;19930;-85
2022/05/29 08:21:43;;;;;;;;;;;;;;;16.72;100.00;99514.31;5107401;28;20275;-85
2022/05/29 08:32:46;;;;;;;;;;;;;;;15.59;100.00;99526.28;5091833;28;19970;-85
2022/05/29 08:35:14;;;;;;;;;;;;;;;15.58;100.00;99527.50;5106306;28;20035;-86
2022/05/29 08:37:41;;;;;;;;;;;;;;;16.10;100.00;99522.31;5089724;28;19967;-86
2022/05/29 08:40:09;;;;;;;;;;;;;;;15.94;100.00;99510.34;5106599;28;19951;-86
2022/05/29 08:42:37;;;;;;;;;;;;;;;16.36;100.00;99511.03;5089832;28;19924;-85
2022/05/29 08:45:08;;;;;;;;;;;;;;;16.09;100.00;99520.72;5106694;28;19932;-85
2022/05/29 08:47:36;;;;;;;;;;;;;;;16.78;100.00;99506.84;5089397;28;19932;-86
2022/05/29 08:50:04;;;;;;;;;;;;;;;16.81;100.00;99497.47;5090820;28;20403;-86
2022/05/29 08:52:37;;;;;;;;;;;;;;;16.99;100.00;99503.28;5106341;28;19930;-86
2022/05/29 08:55:11;;;;;;;;;;;;;;;16.91;100.00;99502.75;5089746;28;19924;-85
2022/05/29 08:57:57;;;;;;;;;;;;;;;16.70;100.00;99497.84;5072820;28;19935;-83
2022/05/29 09:00:33;;;;;;;;;;;;;;;17.68;100.00;99490.69;5090151;28;19924;-85
2022/05/29 09:03:05;;;;;;;;;;;;;;;18.32;100.00;99481.28;5123612;28;20007;-83
2022/05/29 09:05:33;;;;;;;;;;;;;;;18.36;100.00;99486.81;5089505;28;19978;-83
2022/05/29 09:08:05;;;;;;;;;;;;;;;18.03;100.00;99480.84;5089193;28;19974;-83
2022/05/29 09:10:37;;;;;;;;;;;;;;;18.32;100.00;99481.28;5123755;28;19948;-83
2022/05/29 09:13:08;;;;;;;;;;;;;;;18.83;100.00;99476.72;5089451;28;19947;-83
2022/05/29 09:15:40;;;;;;;;;;;;;;;19.09;100.00;99480.84;5122668;28;20294;-82
2022/05/29 09:18:36;;;;;;;;;;;;;;;18.62;100.00;99471.16;5122886;28;19974;-82
2022/05/29 09:21:16;;;;;;;;;;;;;;;17.67;100.00;99484.25;5073402;28;19989;-85
2022/05/29 09:23:57;;;;;;;;;;;;;;;17.35;100.00;99481.00;5105718;28;19951;-86
2022/05/29 09:26:29;;;;;;;;;;;;;;;16.86;100.00;99477.13;5084984;28;19930;-86
2022/05/29 09:28:56;;;;;;;;;;;;;;;17.13;100.00;99483.03;5058954;28;19924;-85
2022/05/29 09:31:25;;;;;;;;;;;;;;;16.98;100.00;99473.50;5076256;28;20300;-82
2022/05/29 09:33:52;;;;;;;;;;;;;;;16.77;100.00;99479.84;5092292;28;19924;-86
2022/05/29 09:36:25;;;;;;;;;;;;;;;16.46;100.00;99476.09;5092107;28;20394;-85
2022/05/29 09:39:00;;;;;;;;;;;;;;;16.38;100.00;99480.34;5058778;28;20380;-86
2022/05/29 09:41:41;;;;;;;;;;;;;;;16.46;100.00;99479.72;5108676;28;20445;-86
2022/05/29 09:44:11;;;;;;;;;;;;;;;16.44;100.00;99470.09;5108908;28;19932;-85
2022/05/29 09:46:40;;;;;;;;;;;;;;;16.79;100.00;99478.16;5108042;28;20013;-83
2022/05/29 09:52:22;;;;;;;;;;;;;;;16.95;100.00;99475.19;5076253;28;20441;-85
2022/05/29 09:54:56;;;;;;;;;;;;;;;16.56;100.00;99474.94;5054289;28;20015;-85
2022/05/29 09:57:26;;;;;;;;;;;;;;;16.52;100.00;99463.78;5108365;28;19925;-85
2022/05/29 10:00:13;;;;;;;;;;;;;;;15.72;100.00;99467.91;5058166;28;19953;-85
2022/05/29 10:02:44;;;;;;;;;;;;;;;15.52;100.00;99472.16;5075063;28;20371;-85
2022/05/29 10:05:25;;;;;;;;;;;;;;;16.51;100.00;99465.00;5074681;28;20399;-86
2022/05/29 10:07:54;;;;;;;;;;;;;;;16.90;100.00;99461.66;5091288;28;19924;-86
2022/05/29 10:10:25;;;;;;;;;;;;;;;16.89;100.00;99468.53;5091023;28;20007;-86
2022/05/29 10:12:54;;;;;;;;;;;;;;;17.28;100.00;99464.31;5058036;28;20007;-87
2022/05/29 10:15:24;;;;;;;;;;;;;;;17.08;100.00;99461.03;5075187;28;19932;-86
2022/05/29 10:17:51;;;;;;;;;;;;;;;16.35;100.00;99459.50;5074452;28;20387;-85
2022/05/29 10:20:31;;;;;;;;;;;;;;;16.23;100.00;99463.91;5074504;28;19934;-88
2022/05/29 10:22:59;;;;;;;;;;;;;;;16.01;100.00;99465.81;5074847;28;20291;-88
2022/05/29 10:25:28;;;;;;;;;;;;;;;16.28;100.00;99468.97;5073855;28;19931;-86
2022/05/29 10:27:58;;;;;;;;;;;;;;;16.36;100.00;99460.28;5091199;28;19925;-86
2022/05/29 10:30:28;;;;;;;;;;;;;;;16.60;100.00;99458.69;5091050;28;19924;-85
2022/05/29 10:33:06;;;;;;;;;;;;;;;16.55;100.00;99457.25;5057744;28;19932;-86
2022/05/29 10:35:35;;;;;;;;;;;;;;;16.79;100.00;99451.97;5090806;28;19925;-86
2022/05/29 10:38:32;;;;;;;;;;;;;;;17.16;100.00;99451.06;5106523;28;19925;-85
2022/05/29 10:41:00;;;;;;;;;;;;;;;17.03;100.00;99455.94;5042666;28;19929;-84
2022/05/29 10:43:40;;;;;;;;;;;;;;;16.92;100.00;99447.09;5107912;28;19928;-86
2022/05/29 10:46:15;;;;;;;;;;;;;;;17.36;100.00;99443.03;5074216;28;19932;-85
2022/05/29 10:49:05;;;;;;;;;;;;;;;17.04;100.00;99454.72;5040799;28;19925;-83
2022/05/29 10:51:38;;;;;;;;;;;;;;;17.18;100.00;99448.53;5075452;28;19929;-83
2022/05/29 10:54:12;;;;;;;;;;;;;;;17.27;100.00;99449.41;5075072;28;20268;-84
2022/05/29 10:56:44;;;;;;;;;;;;;;;16.76;100.00;99439.56;5090399;28;19978;-85
2022/05/29 10:59:50;;;;;;;;;;;;;;;16.74;100.00;99452.53;5090223;28;20023;-82
2022/05/29 11:05:40;;;;;;;;;;;;;;;17.74;100.00;99429.47;5051655;28;20469;-83
2022/05/29 11:08:13;;;;;;;;;;;;;;;17.55;100.00;99422.94;5018265;28;19929;-83
2022/05/29 11:10:58;;;;;;;;;;;;;;;17.62;100.00;99427.53;5018292;28;19944;-83
2022/05/29 11:13:27;;;;;;;;;;;;;;;16.89;100.00;99409.25;5034974;28;19945;-84
2022/05/29 11:15:54;;;;;;;;;;;;;;;17.01;100.00;99421.75;5051091;28;19925;-83
2022/05/29 11:18:30;;;;;;;;;;;;;;;17.21;100.00;99417.38;5051279;28;20107;-84
2022/05/29 11:21:04;;;;;;;;;;;;;;;17.19;100.00;99419.06;5034558;28;19925;-83
2022/05/29 11:23:46;;;;;;;;;;;;;;;17.16;100.00;99417.19;5051106;28;19925;-83
2022/05/29 11:26:32;;;;;;;;;;;;;;;17.29;100.00;99415.06;5051073;28;20063;-84
2022/05/29 11:29:20;;;;;;;;;;;;;;;17.41;100.00;99412.16;5050935;28;20598;-84
2022/05/29 11:31:55;;;;;;;;;;;;;;;17.40;100.00;99410.56;5016933;28;20308;-85
2022/05/29 11:34:35;;;;;;;;;;;;;;;16.82;100.00;99403.09;5072254;28;19929;-83
2022/05/29 11:37:22;;;;;;;;;;;;;;;17.39;100.00;99408.22;5088781;28;19924;-84
2022/05/29 11:39:58;;;;;;;;;;;;;;;17.45;100.00;99406.41;5072007;28;20043;-84
2022/05/29 11:42:27;;;;;;;;;;;;;;;17.82;100.00;99408.97;5073957;28;20368;-84
2022/05/29 11:44:58;;;;;;;;;;;;;;;17.60;100.00;99390.47;5072678;28;19925;-84
2022/05/29 11:53:18;;;;;;;;;;;;;;;17.25;100.00;99386.19;5072619;28;19970;-80
2022/05/29 11:55:47;;;;;;;;;;;;;;;17.32;100.00;99380.25;5089448;28;19931;-80
2022/05/29 11:58:20;;;;;;;;;;;;;;;17.46;100.00;99376.91;5072715;28;20372;-80
2022/05/29 12:00:59;;;;;;;;;;;;;;;17.66;100.00;99377.34;5073997;28;19929;-79
2022/05/29 12:03:43;;;;;;;;;;;;;;;17.40;100.00;99373.09;5073936;28;19986;-79
2022/05/29 12:06:14;;;;;;;;;;;;;;;17.74;100.00;99372.97;5106006;28;20468;-78
2022/05/29 12:08:41;;;;;;;;;;;;;;;17.25;100.00;99369.22;5106236;28;19944;-79
2022/05/29 12:11:19;;;;;;;;;;;;;;;17.68;100.00;99369.97;5072262;28;19928;-79
2022/05/29 12:13:56;;;;;;;;;;;;;;;16.94;100.00;99359.91;5073765;28;19971;-79
2022/05/29 12:16:27;;;;;;;;;;;;;;;17.36;100.00;99352.66;5073811;28;19924;-79
2022/05/29 12:18:55;;;;;;;;;;;;;;;17.35;100.00;99362.38;5073622;28;19925;-79
2022/05/29 12:21:41;;;;;;;;;;;;;;;17.76;100.00;99347.84;5072290;28;19932;-81
2022/05/29 12:24:11;;;;;;;;;;;;;;;17.89;100.00;99345.69;5072861;28;20359;-80
2022/05/29 12:26:44;;;;;;;;;;;;;;;17.62;100.00;99337.91;5073817;28;19963;-80
2022/05/29 12:29:18;;;;;;;;;;;;;;;17.54;100.00;99338.66;5072662;28;19925;-81
2022/05/29 12:31:47;;;;;;;;;;;;;;;17.94;100.00;99343.06;5073991;28;19924;-83
2022/05/29 12:34:22;;;;;;;;;;;;;;;16.44;100.00;99329.09;5072704;28;19974;-83
2022/05/29 12:37:01;;;;;;;;;;;;;;;17.47;100.00;99338.94;5072720;28;20019;-84
2022/05/29 12:39:47;;;;;;;;;;;;;;;17.62;100.00;99337.91;5073433;28;19928;-83
2022/05/29 12:42:22;;;;;;;;;;;;;;;17.67;100.00;99333.69;5072426;28;19925;-85
2022/05/29 12:45:04;;;;;;;;;;;;;;;17.66;100.00;99341.38;5072281;28;19932;-84
2022/05/29 12:47:32;;;;;;;;;;;;;;;17.33;100.00;99333.81;5072621;28;19924;-84
2022/05/29 12:50:30;;;;;;;;;;;;;;;17.62;100.00;99334.28;5072088;28;19928;-83
2022/05/29 12:53:01;;;;;;;;;;;;;;;17.53;100.00;99337.06;5072264;28;19947;-84
2022/05/29 12:55:31;;;;;;;;;;;;;;;17.34;100.00;99338.22;5073256;28;19928;-84
2022/05/29 12:58:12;;;;;;;;;;;;;;;17.34;100.00;99332.56;5073713;28;19964;-83
2022/05/29 13:00:39;;;;;;;;;;;;;;;17.46;100.00;99323.25;5073440;28;20058;-83
2022/05/29 13:03:26;;;;;;;;;;;;;;;17.98;100.00;99320.28;5076464;28;19924;-82
2022/05/29 13:06:08;;;;;;;;;;;;;;;18.18;100.00;99317.81;5093127;28;20019;-82
2022/05/29 13:08:47;;;;;;;;;;;;;;;18.29;100.00;99318.16;5075634;28;19928;-82
2022/05/29 13:11:34;;;;;;;;;;;;;;;17.86;100.00;99301.41;5077365;28;19924;-82
2022/05/29 13:14:04;;;;;;;;;;;;;;;18.14;100.00;99317.19;5077191;28;19924;-82
2022/05/29 13:16:33;;;;;;;;;;;;;;;18.33;100.00;99324.44;5076019;28;19932;-83
2022/05/29 13:21:57;;;;;;;;;;;;;;;18.10;100.00;99319.38;5075737;28;20331;-84
2022/05/29 13:24:25;;;;;;;;;;;;;;;17.57;100.00;99315.91;5076588;28;19924;-84
2022/05/29 13:27:21;;;;;;;;;;;;;;;17.42;100.00;99319.72;5075493;28;20364;-85
2022/05/29 13:29:54;;;;;;;;;;;;;;;17.62;100.00;99317.34;5076547;28;19978;-79
2022/05/29 13:32:24;;;;;;;;;;;;;;;17.30;100.00;99315.75;5076368;28;19924;-80
2022/05/29 13:35:03;;;;;;;;;;;;;;;17.01;100.00;99311.69;5076588;28;19936;-83
2022/05/29 13:37:31;;;;;;;;;;;;;;;17.27;100.00;99307.41;5076161;28;19924;-84
2022/05/29 13:40:05;;;;;;;;;;;;;;;17.14;100.00;99315.19;5059133;28;19924;-86
2022/05/29 13:42:48;;;;;;;;;;;;;;;17.38;100.00;99304.97;5076409;28;20355;-83